sensor_id;sensor_type;location;lat;lon;timestamp;P1;durP1;ratioP1;P2;durP2;ratioP2
23474;SDS011;11910;52.086;21.066;2023-04-15T00:01:58;12.52;;;10.30;;
23474;SDS011;11910;52.086;21.066;2023-04-15T00:04:24;12.55;;;11.18;;
23474;SDS011;11910;52.086;21.066;2023-04-15T00:06:51;15.48;;;11.70;;
23474;SDS011;11910;52.086;21.066;2023-04-15T00:09:17;13.27;;;11.82;;
23474;SDS011;11910;52.086;21.066;2023-04-15T00:11:44;13.60;;;12.15;;
23474;SDS011;11910;52.086;21.066;2023-04-15T00:14:10;14.38;;;11.77;;
23474;SDS011;11910;52.086;21.066;2023-04-15T00:16:37;13.60;;;10.75;;
23474;SDS011;11910;52.086;21.066;2023-04-15T00:19:02;13.98;;;12.07;;
23474;SDS011;11910;52.086;21.066;2023-04-15T00:21:28;15.65;;;12.60;;
23474;SDS011;11910;52.086;21.066;2023-04-15T00:23:54;12.32;;;10.85;;
23474;SDS011;11910;52.086;21.066;2023-04-15T00:26:20;14.32;;;12.50;;
23474;SDS011;11910;52.086;21.066;2023-04-15T00:28:46;15.10;;;12.75;;
23474;SDS011;11910;52.086;21.066;2023-04-15T00:31:12;15.05;;;11.85;;
23474;SDS011;11910;52.086;21.066;2023-04-15T00:33:38;12.77;;;11.27;;
23474;SDS011;11910;52.086;21.066;2023-04-15T00:36:05;13.00;;;11.68;;
23474;SDS011;11910;52.086;21.066;2023-04-15T00:38:31;14.70;;;12.20;;
23474;SDS011;11910;52.086;21.066;2023-04-15T00:40:57;12.32;;;10.80;;
23474;SDS011;11910;52.086;21.066;2023-04-15T00:43:23;14.07;;;11.75;;
23474;SDS011;11910;52.086;21.066;2023-04-15T00:45:50;13.40;;;11.35;;
23474;SDS011;11910;52.086;21.066;2023-04-15T00:48:17;12.45;;;10.60;;
23474;SDS011;11910;52.086;21.066;2023-04-15T00:50:44;13.55;;;10.70;;
23474;SDS011;11910;52.086;21.066;2023-04-15T00:53:09;14.10;;;12.23;;
23474;SDS011;11910;52.086;21.066;2023-04-15T00:55:35;14.30;;;12.45;;
23474;SDS011;11910;52.086;21.066;2023-04-15T00:58:02;17.23;;;12.63;;
23474;SDS011;11910;52.086;21.066;2023-04-15T01:00:27;13.30;;;11.32;;
23474;SDS011;11910;52.086;21.066;2023-04-15T01:02:54;17.20;;;11.88;;
23474;SDS011;11910;52.086;21.066;2023-04-15T01:05:20;13.77;;;11.48;;
23474;SDS011;11910;52.086;21.066;2023-04-15T01:07:46;16.48;;;11.65;;
23474;SDS011;11910;52.086;21.066;2023-04-15T01:10:12;12.68;;;11.38;;
23474;SDS011;11910;52.086;21.066;2023-04-15T01:12:38;13.75;;;12.35;;
23474;SDS011;11910;52.086;21.066;2023-04-15T01:15:04;16.35;;;13.07;;
23474;SDS011;11910;52.086;21.066;2023-04-15T01:17:30;16.23;;;13.20;;
23474;SDS011;11910;52.086;21.066;2023-04-15T01:19:56;16.80;;;14.65;;
23474;SDS011;11910;52.086;21.066;2023-04-15T01:22:23;15.50;;;13.90;;
23474;SDS011;11910;52.086;21.066;2023-04-15T01:24:53;14.60;;;13.00;;
23474;SDS011;11910;52.086;21.066;2023-04-15T01:27:30;15.40;;;13.35;;
23474;SDS011;11910;52.086;21.066;2023-04-15T01:29:56;17.30;;;14.43;;
23474;SDS011;11910;52.086;21.066;2023-04-15T01:32:22;17.13;;;14.90;;
23474;SDS011;11910;52.086;21.066;2023-04-15T01:34:48;16.15;;;13.90;;
23474;SDS011;11910;52.086;21.066;2023-04-15T01:37:13;18.40;;;16.05;;
23474;SDS011;11910;52.086;21.066;2023-04-15T01:39:39;16.58;;;14.45;;
23474;SDS011;11910;52.086;21.066;2023-04-15T01:42:05;17.60;;;14.50;;
23474;SDS011;11910;52.086;21.066;2023-04-15T01:44:30;20.95;;;16.27;;
23474;SDS011;11910;52.086;21.066;2023-04-15T01:46:56;19.05;;;15.30;;
23474;SDS011;11910;52.086;21.066;2023-04-15T01:49:22;20.88;;;17.30;;
23474;SDS011;11910;52.086;21.066;2023-04-15T01:51:48;20.48;;;17.80;;
23474;SDS011;11910;52.086;21.066;2023-04-15T01:54:13;21.20;;;17.50;;
23474;SDS011;11910;52.086;21.066;2023-04-15T01:56:39;19.13;;;17.00;;
23474;SDS011;11910;52.086;21.066;2023-04-15T01:59:04;21.83;;;17.33;;
23474;SDS011;11910;52.086;21.066;2023-04-15T02:01:30;22.30;;;18.23;;
23474;SDS011;11910;52.086;21.066;2023-04-15T02:03:55;20.20;;;17.92;;
23474;SDS011;11910;52.086;21.066;2023-04-15T02:06:21;23.80;;;19.00;;
23474;SDS011;11910;52.086;21.066;2023-04-15T02:08:47;22.42;;;18.42;;
23474;SDS011;11910;52.086;21.066;2023-04-15T02:11:13;22.80;;;17.38;;
23474;SDS011;11910;52.086;21.066;2023-04-15T02:13:39;20.45;;;16.40;;
23474;SDS011;11910;52.086;21.066;2023-04-15T02:16:14;19.92;;;17.45;;
23474;SDS011;11910;52.086;21.066;2023-04-15T02:18:41;20.90;;;18.05;;
23474;SDS011;11910;52.086;21.066;2023-04-15T02:21:07;22.42;;;18.35;;
23474;SDS011;11910;52.086;21.066;2023-04-15T02:23:32;25.55;;;20.45;;
23474;SDS011;11910;52.086;21.066;2023-04-15T02:25:58;19.83;;;17.63;;
23474;SDS011;11910;52.086;21.066;2023-04-15T02:28:24;21.38;;;18.70;;
23474;SDS011;11910;52.086;21.066;2023-04-15T02:30:50;20.10;;;17.08;;
23474;SDS011;11910;52.086;21.066;2023-04-15T02:33:17;21.38;;;17.52;;
23474;SDS011;11910;52.086;21.066;2023-04-15T02:35:43;21.70;;;18.67;;
23474;SDS011;11910;52.086;21.066;2023-04-15T02:38:09;21.13;;;18.20;;
23474;SDS011;11910;52.086;21.066;2023-04-15T02:40:35;20.70;;;17.98;;
23474;SDS011;11910;52.086;21.066;2023-04-15T02:43:01;22.40;;;19.17;;
23474;SDS011;11910;52.086;21.066;2023-04-15T02:45:27;21.73;;;18.38;;
23474;SDS011;11910;52.086;21.066;2023-04-15T02:47:53;21.80;;;17.88;;
23474;SDS011;11910;52.086;21.066;2023-04-15T02:50:18;20.40;;;18.15;;
23474;SDS011;11910;52.086;21.066;2023-04-15T02:52:44;22.33;;;18.88;;
23474;SDS011;11910;52.086;21.066;2023-04-15T02:55:10;24.40;;;20.52;;
23474;SDS011;11910;52.086;21.066;2023-04-15T02:57:36;25.95;;;21.70;;
23474;SDS011;11910;52.086;21.066;2023-04-15T03:00:03;22.75;;;19.63;;
23474;SDS011;11910;52.086;21.066;2023-04-15T03:02:33;21.80;;;17.67;;
23474;SDS011;11910;52.086;21.066;2023-04-15T03:04:59;22.98;;;17.52;;
23474;SDS011;11910;52.086;21.066;2023-04-15T03:07:25;21.58;;;18.13;;
23474;SDS011;11910;52.086;21.066;2023-04-15T03:09:51;20.45;;;17.15;;
23474;SDS011;11910;52.086;21.066;2023-04-15T03:12:16;21.63;;;19.30;;
23474;SDS011;11910;52.086;21.066;2023-04-15T03:14:42;20.35;;;17.42;;
23474;SDS011;11910;52.086;21.066;2023-04-15T03:17:07;18.85;;;16.02;;
23474;SDS011;11910;52.086;21.066;2023-04-15T03:19:33;20.60;;;17.40;;
23474;SDS011;11910;52.086;21.066;2023-04-15T03:21:58;16.50;;;14.52;;
23474;SDS011;11910;52.086;21.066;2023-04-15T03:24:24;18.27;;;16.38;;
23474;SDS011;11910;52.086;21.066;2023-04-15T03:26:51;17.10;;;14.63;;
23474;SDS011;11910;52.086;21.066;2023-04-15T03:29:16;18.55;;;16.55;;
23474;SDS011;11910;52.086;21.066;2023-04-15T03:31:42;18.55;;;16.65;;
23474;SDS011;11910;52.086;21.066;2023-04-15T03:34:07;16.75;;;15.00;;
23474;SDS011;11910;52.086;21.066;2023-04-15T03:36:33;19.38;;;17.27;;
23474;SDS011;11910;52.086;21.066;2023-04-15T03:38:58;20.65;;;15.75;;
23474;SDS011;11910;52.086;21.066;2023-04-15T03:41:26;15.95;;;14.30;;
23474;SDS011;11910;52.086;21.066;2023-04-15T03:43:52;18.15;;;15.82;;
23474;SDS011;11910;52.086;21.066;2023-04-15T03:46:18;16.45;;;14.48;;
23474;SDS011;11910;52.086;21.066;2023-04-15T03:48:43;17.33;;;15.48;;
23474;SDS011;11910;52.086;21.066;2023-04-15T03:51:09;16.38;;;13.75;;
23474;SDS011;11910;52.086;21.066;2023-04-15T03:53:34;17.10;;;15.20;;
23474;SDS011;11910;52.086;21.066;2023-04-15T03:56:00;17.40;;;15.55;;
23474;SDS011;11910;52.086;21.066;2023-04-15T03:58:26;18.48;;;14.88;;
23474;SDS011;11910;52.086;21.066;2023-04-15T04:00:51;18.90;;;15.57;;
23474;SDS011;11910;52.086;21.066;2023-04-15T04:03:18;19.13;;;17.13;;
23474;SDS011;11910;52.086;21.066;2023-04-15T04:05:44;18.08;;;15.88;;
23474;SDS011;11910;52.086;21.066;2023-04-15T04:08:10;21.50;;;17.90;;
23474;SDS011;11910;52.086;21.066;2023-04-15T04:10:37;18.45;;;15.20;;
23474;SDS011;11910;52.086;21.066;2023-04-15T04:13:03;17.65;;;15.50;;
23474;SDS011;11910;52.086;21.066;2023-04-15T04:15:29;18.40;;;16.48;;
23474;SDS011;11910;52.086;21.066;2023-04-15T04:17:55;16.98;;;15.23;;
23474;SDS011;11910;52.086;21.066;2023-04-15T04:20:21;18.58;;;16.30;;
23474;SDS011;11910;52.086;21.066;2023-04-15T04:22:46;16.90;;;15.13;;
23474;SDS011;11910;52.086;21.066;2023-04-15T04:25:12;17.13;;;15.40;;
23474;SDS011;11910;52.086;21.066;2023-04-15T04:27:38;17.52;;;15.50;;
23474;SDS011;11910;52.086;21.066;2023-04-15T04:30:04;18.85;;;15.90;;
23474;SDS011;11910;52.086;21.066;2023-04-15T04:32:30;16.30;;;14.60;;
23474;SDS011;11910;52.086;21.066;2023-04-15T04:34:56;16.63;;;14.73;;
23474;SDS011;11910;52.086;21.066;2023-04-15T04:37:22;16.05;;;14.23;;
23474;SDS011;11910;52.086;21.066;2023-04-15T04:39:48;16.42;;;14.70;;
23474;SDS011;11910;52.086;21.066;2023-04-15T04:42:14;15.57;;;13.93;;
23474;SDS011;11910;52.086;21.066;2023-04-15T04:44:40;16.42;;;14.70;;
23474;SDS011;11910;52.086;21.066;2023-04-15T04:47:05;19.80;;;17.10;;
23474;SDS011;11910;52.086;21.066;2023-04-15T04:49:31;16.92;;;14.75;;
23474;SDS011;11910;52.086;21.066;2023-04-15T04:51:57;16.40;;;14.40;;
23474;SDS011;11910;52.086;21.066;2023-04-15T04:54:23;15.85;;;14.15;;
23474;SDS011;11910;52.086;21.066;2023-04-15T04:56:51;17.60;;;14.32;;
23474;SDS011;11910;52.086;21.066;2023-04-15T04:59:17;16.80;;;15.05;;
23474;SDS011;11910;52.086;21.066;2023-04-15T05:01:43;17.30;;;15.35;;
23474;SDS011;11910;52.086;21.066;2023-04-15T05:04:09;17.58;;;14.10;;
23474;SDS011;11910;52.086;21.066;2023-04-15T05:06:34;17.40;;;14.50;;
23474;SDS011;11910;52.086;21.066;2023-04-15T05:09:01;16.40;;;14.70;;
23474;SDS011;11910;52.086;21.066;2023-04-15T05:11:27;20.13;;;17.23;;
23474;SDS011;11910;52.086;21.066;2023-04-15T05:13:53;19.63;;;16.23;;
23474;SDS011;11910;52.086;21.066;2023-04-15T05:16:18;17.33;;;15.15;;
23474;SDS011;11910;52.086;21.066;2023-04-15T05:18:44;17.85;;;15.73;;
23474;SDS011;11910;52.086;21.066;2023-04-15T05:21:10;17.77;;;15.85;;
23474;SDS011;11910;52.086;21.066;2023-04-15T05:23:36;20.38;;;17.83;;
23474;SDS011;11910;52.086;21.066;2023-04-15T05:26:02;19.10;;;17.10;;
23474;SDS011;11910;52.086;21.066;2023-04-15T05:28:28;19.55;;;16.58;;
23474;SDS011;11910;52.086;21.066;2023-04-15T05:30:53;16.75;;;14.95;;
23474;SDS011;11910;52.086;21.066;2023-04-15T05:33:19;15.85;;;14.23;;
23474;SDS011;11910;52.086;21.066;2023-04-15T05:35:45;16.50;;;14.80;;
23474;SDS011;11910;52.086;21.066;2023-04-15T05:38:10;18.40;;;16.08;;
23474;SDS011;11910;52.086;21.066;2023-04-15T05:40:36;18.55;;;16.20;;
23474;SDS011;11910;52.086;21.066;2023-04-15T05:43:02;16.85;;;15.02;;
23474;SDS011;11910;52.086;21.066;2023-04-15T05:45:27;18.20;;;14.90;;
23474;SDS011;11910;52.086;21.066;2023-04-15T05:47:53;14.88;;;13.38;;
23474;SDS011;11910;52.086;21.066;2023-04-15T05:50:19;16.58;;;14.80;;
23474;SDS011;11910;52.086;21.066;2023-04-15T05:52:45;14.65;;;13.15;;
23474;SDS011;11910;52.086;21.066;2023-04-15T05:55:11;15.73;;;13.68;;
23474;SDS011;11910;52.086;21.066;2023-04-15T05:57:36;16.90;;;13.88;;
23474;SDS011;11910;52.086;21.066;2023-04-15T06:00:03;15.73;;;13.07;;
23474;SDS011;11910;52.086;21.066;2023-04-15T06:02:30;14.75;;;13.25;;
23474;SDS011;11910;52.086;21.066;2023-04-15T06:04:56;15.82;;;13.00;;
23474;SDS011;11910;52.086;21.066;2023-04-15T06:07:23;14.93;;;13.35;;
23474;SDS011;11910;52.086;21.066;2023-04-15T06:09:49;14.98;;;13.38;;
23474;SDS011;11910;52.086;21.066;2023-04-15T06:12:15;14.02;;;12.55;;
23474;SDS011;11910;52.086;21.066;2023-04-15T06:14:41;16.17;;;13.50;;
23474;SDS011;11910;52.086;21.066;2023-04-15T06:17:07;15.30;;;13.50;;
23474;SDS011;11910;52.086;21.066;2023-04-15T06:19:33;15.60;;;13.10;;
23474;SDS011;11910;52.086;21.066;2023-04-15T06:22:00;16.17;;;13.30;;
23474;SDS011;11910;52.086;21.066;2023-04-15T06:24:26;15.27;;;13.20;;
23474;SDS011;11910;52.086;21.066;2023-04-15T06:26:52;18.42;;;15.05;;
23474;SDS011;11910;52.086;21.066;2023-04-15T06:29:18;15.98;;;14.27;;
23474;SDS011;11910;52.086;21.066;2023-04-15T06:31:43;17.17;;;15.38;;
23474;SDS011;11910;52.086;21.066;2023-04-15T06:34:11;14.45;;;12.95;;
23474;SDS011;11910;52.086;21.066;2023-04-15T06:36:36;15.93;;;14.07;;
23474;SDS011;11910;52.086;21.066;2023-04-15T06:39:02;17.77;;;14.73;;
23474;SDS011;11910;52.086;21.066;2023-04-15T06:41:28;14.60;;;13.00;;
23474;SDS011;11910;52.086;21.066;2023-04-15T06:43:53;14.65;;;13.07;;
23474;SDS011;11910;52.086;21.066;2023-04-15T06:46:19;14.48;;;12.27;;
23474;SDS011;11910;52.086;21.066;2023-04-15T06:48:44;13.82;;;12.40;;
23474;SDS011;11910;52.086;21.066;2023-04-15T06:51:10;15.02;;;13.43;;
23474;SDS011;11910;52.086;21.066;2023-04-15T06:53:36;14.43;;;12.93;;
23474;SDS011;11910;52.086;21.066;2023-04-15T06:56:05;13.40;;;12.00;;
23474;SDS011;11910;52.086;21.066;2023-04-15T06:58:32;14.60;;;13.02;;
23474;SDS011;11910;52.086;21.066;2023-04-15T07:00:57;14.55;;;12.73;;
23474;SDS011;11910;52.086;21.066;2023-04-15T07:03:23;12.57;;;11.27;;
23474;SDS011;11910;52.086;21.066;2023-04-15T07:05:49;12.75;;;11.45;;
23474;SDS011;11910;52.086;21.066;2023-04-15T07:08:14;14.05;;;11.60;;
23474;SDS011;11910;52.086;21.066;2023-04-15T07:10:40;10.88;;;9.88;;
23474;SDS011;11910;52.086;21.066;2023-04-15T07:13:06;11.43;;;10.32;;
23474;SDS011;11910;52.086;21.066;2023-04-15T07:15:38;11.13;;;9.60;;
23474;SDS011;11910;52.086;21.066;2023-04-15T07:18:07;10.57;;;9.48;;
23474;SDS011;11910;52.086;21.066;2023-04-15T07:20:34;11.32;;;10.13;;
23474;SDS011;11910;52.086;21.066;2023-04-15T07:23:00;12.07;;;10.75;;
23474;SDS011;11910;52.086;21.066;2023-04-15T07:25:25;9.50;;;8.57;;
23474;SDS011;11910;52.086;21.066;2023-04-15T07:27:51;9.75;;;8.75;;
23474;SDS011;11910;52.086;21.066;2023-04-15T07:30:18;9.77;;;8.63;;
23474;SDS011;11910;52.086;21.066;2023-04-15T07:32:43;11.48;;;9.60;;
23474;SDS011;11910;52.086;21.066;2023-04-15T07:35:11;10.80;;;8.88;;
23474;SDS011;11910;52.086;21.066;2023-04-15T07:37:40;9.55;;;8.32;;
23474;SDS011;11910;52.086;21.066;2023-04-15T07:40:08;9.80;;;8.80;;
23474;SDS011;11910;52.086;21.066;2023-04-15T07:42:34;8.65;;;7.70;;
23474;SDS011;11910;52.086;21.066;2023-04-15T07:45:00;10.85;;;7.55;;
23474;SDS011;11910;52.086;21.066;2023-04-15T07:47:26;8.70;;;7.80;;
23474;SDS011;11910;52.086;21.066;2023-04-15T07:49:54;8.15;;;7.35;;
23474;SDS011;11910;52.086;21.066;2023-04-15T07:52:22;8.48;;;7.53;;
23474;SDS011;11910;52.086;21.066;2023-04-15T07:54:48;9.05;;;7.82;;
23474;SDS011;11910;52.086;21.066;2023-04-15T07:57:13;9.60;;;7.32;;
23474;SDS011;11910;52.086;21.066;2023-04-15T07:59:43;12.60;;;8.00;;
23474;SDS011;11910;52.086;21.066;2023-04-15T08:02:09;8.70;;;7.78;;
23474;SDS011;11910;52.086;21.066;2023-04-15T08:04:35;8.38;;;6.70;;
23474;SDS011;11910;52.086;21.066;2023-04-15T08:07:02;8.48;;;7.05;;
23474;SDS011;11910;52.086;21.066;2023-04-15T08:09:31;7.43;;;6.72;;
23474;SDS011;11910;52.086;21.066;2023-04-15T08:11:59;8.43;;;7.53;;
23474;SDS011;11910;52.086;21.066;2023-04-15T08:14:25;7.53;;;6.82;;
23474;SDS011;11910;52.086;21.066;2023-04-15T08:16:51;8.07;;;7.10;;
23474;SDS011;11910;52.086;21.066;2023-04-15T08:19:17;7.63;;;6.85;;
23474;SDS011;11910;52.086;21.066;2023-04-15T08:21:42;8.60;;;7.07;;
23474;SDS011;11910;52.086;21.066;2023-04-15T08:24:08;7.28;;;6.53;;
23474;SDS011;11910;52.086;21.066;2023-04-15T08:26:33;7.65;;;6.85;;
23474;SDS011;11910;52.086;21.066;2023-04-15T08:28:59;7.88;;;7.07;;
23474;SDS011;11910;52.086;21.066;2023-04-15T08:31:25;8.27;;;6.85;;
23474;SDS011;11910;52.086;21.066;2023-04-15T08:33:56;8.60;;;6.68;;
23474;SDS011;11910;52.086;21.066;2023-04-15T08:36:25;7.73;;;6.73;;
23474;SDS011;11910;52.086;21.066;2023-04-15T08:38:51;7.22;;;6.53;;
23474;SDS011;11910;52.086;21.066;2023-04-15T08:41:20;7.97;;;7.18;;
23474;SDS011;11910;52.086;21.066;2023-04-15T08:43:51;7.35;;;6.65;;
23474;SDS011;11910;52.086;21.066;2023-04-15T08:46:20;7.85;;;7.03;;
23474;SDS011;11910;52.086;21.066;2023-04-15T08:48:47;7.45;;;6.50;;
23474;SDS011;11910;52.086;21.066;2023-04-15T08:51:16;7.65;;;6.85;;
23474;SDS011;11910;52.086;21.066;2023-04-15T08:53:42;7.90;;;6.15;;
23474;SDS011;11910;52.086;21.066;2023-04-15T08:56:10;9.13;;;7.53;;
23474;SDS011;11910;52.086;21.066;2023-04-15T08:58:38;6.95;;;5.95;;
23474;SDS011;11910;52.086;21.066;2023-04-15T09:01:07;7.32;;;6.47;;
23474;SDS011;11910;52.086;21.066;2023-04-15T09:03:32;7.53;;;6.82;;
23474;SDS011;11910;52.086;21.066;2023-04-15T09:05:59;8.43;;;6.80;;
23474;SDS011;11910;52.086;21.066;2023-04-15T09:08:25;8.35;;;6.60;;
23474;SDS011;11910;52.086;21.066;2023-04-15T09:10:51;7.90;;;6.88;;
23474;SDS011;11910;52.086;21.066;2023-04-15T09:13:18;6.43;;;5.72;;
23474;SDS011;11910;52.086;21.066;2023-04-15T09:15:43;6.97;;;5.85;;
23474;SDS011;11910;52.086;21.066;2023-04-15T09:18:10;8.50;;;6.57;;
23474;SDS011;11910;52.086;21.066;2023-04-15T09:20:40;7.97;;;7.18;;
23474;SDS011;11910;52.086;21.066;2023-04-15T09:23:24;6.22;;;5.28;;
23474;SDS011;11910;52.086;21.066;2023-04-15T09:25:53;6.90;;;6.07;;
23474;SDS011;11910;52.086;21.066;2023-04-15T09:28:23;7.63;;;6.20;;
23474;SDS011;11910;52.086;21.066;2023-04-15T09:30:50;6.70;;;5.75;;
23474;SDS011;11910;52.086;21.066;2023-04-15T09:33:19;6.95;;;5.70;;
23474;SDS011;11910;52.086;21.066;2023-04-15T09:36:06;6.22;;;5.45;;
23474;SDS011;11910;52.086;21.066;2023-04-15T09:38:31;5.82;;;5.22;;
23474;SDS011;11910;52.086;21.066;2023-04-15T09:40:57;8.23;;;6.13;;
23474;SDS011;11910;52.086;21.066;2023-04-15T09:43:35;6.38;;;5.43;;
23474;SDS011;11910;52.086;21.066;2023-04-15T09:46:02;5.57;;;5.00;;
23474;SDS011;11910;52.086;21.066;2023-04-15T09:48:28;5.57;;;5.05;;
23474;SDS011;11910;52.086;21.066;2023-04-15T09:50:59;7.03;;;4.57;;
23474;SDS011;11910;52.086;21.066;2023-04-15T09:53:25;5.47;;;4.78;;
23474;SDS011;11910;52.086;21.066;2023-04-15T09:55:52;5.07;;;4.57;;
23474;SDS011;11910;52.086;21.066;2023-04-15T09:58:26;5.55;;;4.85;;
23474;SDS011;11910;52.086;21.066;2023-04-15T10:00:52;8.95;;;7.15;;
23474;SDS011;11910;52.086;21.066;2023-04-15T10:03:20;9.57;;;7.00;;
23474;SDS011;11910;52.086;21.066;2023-04-15T10:05:54;8.73;;;7.82;;
23474;SDS011;11910;52.086;21.066;2023-04-15T10:08:25;6.72;;;5.43;;
23474;SDS011;11910;52.086;21.066;2023-04-15T10:10:52;13.07;;;7.18;;
23474;SDS011;11910;52.086;21.066;2023-04-15T10:13:24;8.43;;;7.18;;
23474;SDS011;11910;52.086;21.066;2023-04-15T10:15:57;7.90;;;7.10;;
23474;SDS011;11910;52.086;21.066;2023-04-15T10:18:44;12.00;;;8.68;;
23474;SDS011;11910;52.086;21.066;2023-04-15T10:21:11;12.38;;;7.80;;
23474;SDS011;11910;52.086;21.066;2023-04-15T10:23:40;12.95;;;6.78;;
23474;SDS011;11910;52.086;21.066;2023-04-15T10:26:06;10.82;;;7.63;;
23474;SDS011;11910;52.086;21.066;2023-04-15T10:28:33;7.70;;;6.60;;
23474;SDS011;11910;52.086;21.066;2023-04-15T10:30:59;10.48;;;7.75;;
23474;SDS011;11910;52.086;21.066;2023-04-15T10:33:25;8.10;;;7.30;;
23474;SDS011;11910;52.086;21.066;2023-04-15T10:35:53;10.98;;;8.23;;
23474;SDS011;11910;52.086;21.066;2023-04-15T10:38:36;9.02;;;8.10;;
23474;SDS011;11910;52.086;21.066;2023-04-15T10:41:13;10.98;;;8.20;;
23474;SDS011;11910;52.086;21.066;2023-04-15T10:43:47;12.77;;;11.02;;
23474;SDS011;11910;52.086;21.066;2023-04-15T10:46:18;14.35;;;11.98;;
23474;SDS011;11910;52.086;21.066;2023-04-15T10:51:39;15.52;;;12.43;;
23474;SDS011;11910;52.086;21.066;2023-04-15T10:54:17;17.52;;;13.48;;
23474;SDS011;11910;52.086;21.066;2023-04-15T10:59:32;17.58;;;14.43;;
23474;SDS011;11910;52.086;21.066;2023-04-15T11:02:01;20.05;;;14.90;;
23474;SDS011;11910;52.086;21.066;2023-04-15T11:10:03;21.27;;;16.52;;
23474;SDS011;11910;52.086;21.066;2023-04-15T11:12:41;18.40;;;14.88;;
23474;SDS011;11910;52.086;21.066;2023-04-15T11:20:37;9.95;;;8.20;;
23474;SDS011;11910;52.086;21.066;2023-04-15T11:23:04;12.13;;;10.82;;
23474;SDS011;11910;52.086;21.066;2023-04-15T11:25:31;9.02;;;7.30;;
23474;SDS011;11910;52.086;21.066;2023-04-15T11:27:59;8.95;;;7.72;;
23474;SDS011;11910;52.086;21.066;2023-04-15T11:30:27;8.00;;;6.85;;
23474;SDS011;11910;52.086;21.066;2023-04-15T11:32:56;8.38;;;7.65;;
23474;SDS011;11910;52.086;21.066;2023-04-15T11:35:23;10.32;;;7.72;;
23474;SDS011;11910;52.086;21.066;2023-04-15T11:37:52;11.40;;;8.90;;
23474;SDS011;11910;52.086;21.066;2023-04-15T11:40:22;11.32;;;9.40;;
23474;SDS011;11910;52.086;21.066;2023-04-15T11:45:44;6.93;;;6.22;;
23474;SDS011;11910;52.086;21.066;2023-04-15T11:48:21;9.73;;;7.70;;
23474;SDS011;11910;52.086;21.066;2023-04-15T11:50:56;6.35;;;5.72;;
23474;SDS011;11910;52.086;21.066;2023-04-15T11:56:24;6.72;;;4.90;;
23474;SDS011;11910;52.086;21.066;2023-04-15T11:58:51;5.25;;;4.68;;
23474;SDS011;11910;52.086;21.066;2023-04-15T12:01:18;6.50;;;5.45;;
23474;SDS011;11910;52.086;21.066;2023-04-15T12:03:47;6.15;;;5.55;;
23474;SDS011;11910;52.086;21.066;2023-04-15T12:08:50;5.63;;;4.10;;
23474;SDS011;11910;52.086;21.066;2023-04-15T12:13:55;4.90;;;4.38;;
23474;SDS011;11910;52.086;21.066;2023-04-15T12:16:23;5.25;;;4.45;;
23474;SDS011;11910;52.086;21.066;2023-04-15T12:18:52;4.75;;;3.10;;
23474;SDS011;11910;52.086;21.066;2023-04-15T12:21:24;6.37;;;3.37;;
23474;SDS011;11910;52.086;21.066;2023-04-15T12:23:51;4.07;;;3.30;;
23474;SDS011;11910;52.086;21.066;2023-04-15T12:26:25;4.78;;;3.15;;
23474;SDS011;11910;52.086;21.066;2023-04-15T12:28:59;4.28;;;3.20;;
23474;SDS011;11910;52.086;21.066;2023-04-15T12:31:26;3.47;;;2.78;;
23474;SDS011;11910;52.086;21.066;2023-04-15T12:33:55;4.03;;;2.97;;
23474;SDS011;11910;52.086;21.066;2023-04-15T12:36:22;4.03;;;2.70;;
23474;SDS011;11910;52.086;21.066;2023-04-15T12:38:48;4.63;;;2.50;;
23474;SDS011;11910;52.086;21.066;2023-04-15T12:41:14;2.88;;;2.50;;
23474;SDS011;11910;52.086;21.066;2023-04-15T12:43:40;6.18;;;4.40;;
23474;SDS011;11910;52.086;21.066;2023-04-15T12:46:06;4.25;;;3.42;;
23474;SDS011;11910;52.086;21.066;2023-04-15T12:48:35;6.05;;;4.22;;
23474;SDS011;11910;52.086;21.066;2023-04-15T12:51:03;3.85;;;3.05;;
23474;SDS011;11910;52.086;21.066;2023-04-15T12:53:31;6.25;;;4.00;;
23474;SDS011;11910;52.086;21.066;2023-04-15T12:55:57;4.38;;;3.83;;
23474;SDS011;11910;52.086;21.066;2023-04-15T12:58:25;4.72;;;3.72;;
23474;SDS011;11910;52.086;21.066;2023-04-15T13:00:51;6.70;;;4.07;;
23474;SDS011;11910;52.086;21.066;2023-04-15T13:03:17;5.10;;;3.35;;
23474;SDS011;11910;52.086;21.066;2023-04-15T13:05:42;7.75;;;5.53;;
23474;SDS011;11910;52.086;21.066;2023-04-15T13:08:08;4.75;;;3.90;;
23474;SDS011;11910;52.086;21.066;2023-04-15T13:10:37;4.03;;;3.28;;
23474;SDS011;11910;52.086;21.066;2023-04-15T13:13:03;4.82;;;3.00;;
23474;SDS011;11910;52.086;21.066;2023-04-15T13:15:29;4.30;;;3.30;;
23474;SDS011;11910;52.086;21.066;2023-04-15T13:17:58;3.75;;;2.28;;
23474;SDS011;11910;52.086;21.066;2023-04-15T13:20:27;1.85;;;1.60;;
23474;SDS011;11910;52.086;21.066;2023-04-15T13:22:53;4.70;;;2.85;;
23474;SDS011;11910;52.086;21.066;2023-04-15T13:25:18;4.72;;;2.30;;
23474;SDS011;11910;52.086;21.066;2023-04-15T13:27:48;2.50;;;1.83;;
23474;SDS011;11910;52.086;21.066;2023-04-15T13:30:13;3.22;;;2.17;;
23474;SDS011;11910;52.086;21.066;2023-04-15T13:32:39;3.58;;;2.60;;
23474;SDS011;11910;52.086;21.066;2023-04-15T13:35:05;3.30;;;2.25;;
23474;SDS011;11910;52.086;21.066;2023-04-15T13:37:30;3.92;;;2.33;;
23474;SDS011;11910;52.086;21.066;2023-04-15T13:39:56;4.57;;;2.70;;
23474;SDS011;11910;52.086;21.066;2023-04-15T13:42:22;7.20;;;2.85;;
23474;SDS011;11910;52.086;21.066;2023-04-15T13:44:49;4.72;;;2.70;;
23474;SDS011;11910;52.086;21.066;2023-04-15T13:47:15;3.90;;;2.42;;
23474;SDS011;11910;52.086;21.066;2023-04-15T13:49:42;4.30;;;2.80;;
23474;SDS011;11910;52.086;21.066;2023-04-15T13:52:11;3.63;;;2.55;;
23474;SDS011;11910;52.086;21.066;2023-04-15T13:54:37;4.88;;;2.65;;
23474;SDS011;11910;52.086;21.066;2023-04-15T13:57:02;3.10;;;2.50;;
23474;SDS011;11910;52.086;21.066;2023-04-15T13:59:29;7.47;;;2.90;;
23474;SDS011;11910;52.086;21.066;2023-04-15T14:01:54;2.63;;;2.05;;
23474;SDS011;11910;52.086;21.066;2023-04-15T14:04:20;4.15;;;2.33;;
23474;SDS011;11910;52.086;21.066;2023-04-15T14:06:48;5.53;;;2.70;;
23474;SDS011;11910;52.086;21.066;2023-04-15T14:09:17;4.43;;;2.38;;
23474;SDS011;11910;52.086;21.066;2023-04-15T14:11:43;4.55;;;2.88;;
23474;SDS011;11910;52.086;21.066;2023-04-15T14:14:08;3.53;;;2.60;;
23474;SDS011;11910;52.086;21.066;2023-04-15T14:16:40;3.92;;;2.65;;
23474;SDS011;11910;52.086;21.066;2023-04-15T14:19:06;4.75;;;2.80;;
23474;SDS011;11910;52.086;21.066;2023-04-15T14:21:35;4.03;;;2.75;;
23474;SDS011;11910;52.086;21.066;2023-04-15T14:24:00;3.28;;;2.28;;
23474;SDS011;11910;52.086;21.066;2023-04-15T14:26:26;2.38;;;1.70;;
23474;SDS011;11910;52.086;21.066;2023-04-15T14:28:52;2.92;;;2.15;;
23474;SDS011;11910;52.086;21.066;2023-04-15T14:31:21;4.95;;;3.30;;
23474;SDS011;11910;52.086;21.066;2023-04-15T14:33:46;4.55;;;3.08;;
23474;SDS011;11910;52.086;21.066;2023-04-15T14:36:12;3.65;;;2.75;;
23474;SDS011;11910;52.086;21.066;2023-04-15T14:38:43;2.97;;;2.25;;
23474;SDS011;11910;52.086;21.066;2023-04-15T14:41:08;2.58;;;1.95;;
23474;SDS011;11910;52.086;21.066;2023-04-15T14:43:37;4.65;;;2.10;;
23474;SDS011;11910;52.086;21.066;2023-04-15T14:46:03;3.70;;;2.25;;
23474;SDS011;11910;52.086;21.066;2023-04-15T14:48:29;2.22;;;1.85;;